Terminal Aerodrome Forecast
Issued by NWS Memphis, TN

Home | Current Version | Previous Version | Text Only | Print | Product List | Glossary On
Versions: 1 2 3 4 5 6 7 8 9 10 11 12 13 14 15 16 17 18 19 20 21 22 23 24
000
FTUS44 KMEG 160500
TAFMEM
TAF
KMEM 160534Z 1606/1706 23004KT P6SM SCT080 BKN150
     FM161100 36006KT P6SM VCSH SCT015 BKN060 OVC100
      TEMPO 1613/1615 FEW008 BKN015
     FM161500 36008KT P6SM VCSH BKN025
     FM161700 36008KT P6SM VCTS BKN035CB
     FM170000 02005KT P6SM SCT035 BKN100=

USA.gov is the U.S. government's official web portal to all federal, state and local government web resources and services.